Overview Statistics Trail Chart Weather Telemetry Raw packets
 

This is the latest recevied weather packets stored in our database for station/object TONGUE. If no packets are shown the sender has not sent any weather packets the latest 10 day(s).

<< 41 42 43 44 45 46 >>
Time Temp. Humidity Pressure Rain* Wind** Luminosity Snow
1787786403 19.44° C 69% 0 hPa - - - -
1787785803 19.44° C 70% 0 hPa - - - -
1787785204 19.44° C 71% 0 hPa - - - -
1787784603 18.89° C 77% 0 hPa - - - -
1787784007 18.89° C 76% 0 hPa - - - -
1787783404 18.89° C 74% 0 hPa - - - -
1787782808 18.33° C 76% 0 hPa - - - -
1787782203 18.33° C 75% 0 hPa - - - -
1787781603 18.33° C 75% 0 hPa - - - -
1787781003 18.89° C 73% 0 hPa - - - -
1787780403 18.89° C 72% 0 hPa - - - -
1787779808 18.89° C 74% 0 hPa - - - -
1787779203 18.33° C 75% 0 hPa - - - -
1787778602 18.33° C 74% 0 hPa - - - -
1787778006 18.89° C 73% 0 hPa - - - -
1787777403 17.78° C 77% 0 hPa - - - -
1787776803 18.33° C 77% 0 hPa - - - -
1787776203 17.78° C 78% 0 hPa - - - -
1787775603 17.22° C 80% 0 hPa - - - -
1787775003 17.22° C 79% 0 hPa - - - -
1787774407 17.78° C 78% 0 hPa - - - -
1787773803 17.78° C 77% 0 hPa - - - -
1787773203 17.78° C 79% 0 hPa - - - -
1787772603 17.78° C 79% 0 hPa - - - -
1787772008 17.22° C 81% 0 hPa - - - -

* Rain since midnight (hover to see other rain measurements)
** Current wind speed in m/s (hover to see current wind gust speed)